Time,TemperatureF,DewpointF,PressureIn,WindDirection,WindDirectionDegrees,WindSpeedMPH,WindSpeedGustMPH,Humidity,HourlyPrecipIn,Conditions,Clouds,dailyrainin,SoftwareType,DateUTC
2013-06-15 00:02:00,66.0,64.0,29.95,SE,136,1.0,5.0,93,0.00,,,0.00,,2013-06-15 05:02:00,
2013-06-15 00:12:00,66.0,64.0,29.96,ENE,57,2.0,8.0,94,0.00,,,0.00,,2013-06-15 05:12:00,
2013-06-15 00:22:00,66.0,64.0,29.95,ENE,71,2.0,5.0,94,0.00,,,0.00,,2013-06-15 05:22:00,
2013-06-15 00:34:00,66.0,64.0,29.95,East,91,2.0,4.0,94,0.00,,,0.00,,2013-06-15 05:34:00,
2013-06-15 00:43:00,66.0,65.0,29.95,East,80,2.0,9.0,95,0.00,,,0.00,,2013-06-15 05:43:00,
2013-06-15 00:52:00,66.0,65.0,29.95,ENE,77,1.0,9.0,95,0.00,,,0.00,,2013-06-15 05:52:00,
2013-06-15 01:02:00,66.0,65.0,29.95,ENE,67,0.0,4.0,95,0.00,,,0.00,,2013-06-15 06:02:00,
2013-06-15 01:12:00,66.0,65.0,29.94,East,82,3.0,9.0,96,0.00,,,0.00,,2013-06-15 06:12:00,
2013-06-15 01:24:00,66.0,65.0,29.94,South,172,2.0,6.0,96,0.00,,,0.00,,2013-06-15 06:24:00,
2013-06-15 01:33:00,66.0,65.0,29.95,SE,125,1.0,5.0,96,0.00,,,0.00,,2013-06-15 06:33:00,
2013-06-15 01:43:00,66.0,65.0,29.94,South,173,1.0,4.0,96,0.00,,,0.00,,2013-06-15 06:43:00,
2013-06-15 01:53:00,66.0,65.0,29.94,ESE,108,1.0,6.0,96,0.00,,,0.00,,2013-06-15 06:53:00,
2013-06-15 02:01:00,66.0,65.0,29.94,SSE,156,1.0,5.0,96,0.00,,,0.00,,2013-06-15 07:01:00,
2013-06-15 02:11:00,67.0,66.0,29.94,SSW,192,3.0,5.0,96,0.00,,,0.00,,2013-06-15 07:11:00,
2013-06-15 02:23:00,67.0,66.0,29.94,SSE,150,1.0,5.0,96,0.00,,,0.00,,2013-06-15 07:23:00,
2013-06-15 02:33:00,66.0,65.0,29.94,ENE,72,2.0,5.0,97,0.00,,,0.00,,2013-06-15 07:33:00,
2013-06-15 02:43:00,67.0,66.0,29.95,NE,40,0.0,6.0,97,0.00,,,0.00,,2013-06-15 07:43:00,
2013-06-15 02:53:00,67.0,66.0,29.95,NE,40,0.0,2.0,97,0.00,,,0.00,,2013-06-15 07:53:00,
2013-06-15 03:02:00,67.0,66.0,29.95,East,86,1.0,4.0,97,0.00,,,0.00,,2013-06-15 08:02:00,
2013-06-15 03:11:00,67.0,66.0,29.95,East,79,0.0,4.0,97,0.00,,,0.00,,2013-06-15 08:11:00,
2013-06-15 03:22:00,67.0,66.0,29.95,East,79,0.0,2.0,97,0.00,,,0.00,,2013-06-15 08:22:00,
2013-06-15 03:33:00,67.0,66.0,29.95,East,79,0.0,2.0,97,0.00,,,0.00,,2013-06-15 08:33:00,
2013-06-15 03:42:00,66.0,65.0,29.94,East,81,2.0,4.0,97,0.00,,,0.00,,2013-06-15 08:42:00,
2013-06-15 03:53:00,66.0,65.0,29.94,East,81,0.0,1.0,97,0.00,,,0.00,,2013-06-15 08:53:00,
2013-06-15 04:02:00,66.0,65.0,29.93,East,81,0.0,0.0,97,0.00,,,0.00,,2013-06-15 09:02:00,
2013-06-15 04:12:00,66.0,65.0,29.93,East,81,0.0,0.0,97,0.00,,,0.00,,2013-06-15 09:12:00,
2013-06-15 04:22:00,66.0,65.0,29.93,East,81,0.0,1.0,97,0.00,,,0.00,,2013-06-15 09:22:00,
2013-06-15 04:33:00,66.0,65.0,29.93,East,81,0.0,0.0,97,0.00,,,0.00,,2013-06-15 09:33:00,
2013-06-15 04:43:00,66.0,65.0,29.94,East,81,0.0,0.0,98,0.00,,,0.00,,2013-06-15 09:43:00,
2013-06-15 04:52:00,66.0,65.0,29.93,East,81,0.0,2.0,98,0.00,,,0.00,,2013-06-15 09:52:00,
2013-06-15 05:02:00,66.0,65.0,29.93,East,81,0.0,1.0,98,0.00,,,0.00,,2013-06-15 10:02:00,
2013-06-15 05:11:00,66.0,65.0,29.93,East,81,0.0,2.0,98,0.00,,,0.00,,2013-06-15 10:11:00,
2013-06-15 05:23:00,66.0,65.0,29.94,East,81,0.0,1.0,98,0.00,,,0.00,,2013-06-15 10:23:00,
2013-06-15 05:33:00,66.0,65.0,29.94,East,81,0.0,2.0,97,0.00,,,0.00,,2013-06-15 10:33:00,
2013-06-15 05:44:00,66.0,65.0,29.94,East,81,0.0,1.0,97,0.00,,,0.00,,2013-06-15 10:44:00,
2013-06-15 05:53:00,66.0,65.0,29.93,SSE,165,0.0,3.0,96,0.00,,,0.00,,2013-06-15 10:53:00,
2013-06-15 06:02:00,66.0,65.0,29.93,SSE,165,0.0,2.0,95,0.00,,,0.00,,2013-06-15 11:02:00,
2013-06-15 06:11:00,66.0,65.0,29.93,SSE,165,0.0,1.0,95,0.00,,,0.00,,2013-06-15 11:11:00,
2013-06-15 06:22:00,66.0,64.0,29.93,SSE,165,0.0,2.0,94,0.00,,,0.00,,2013-06-15 11:22:00,
2013-06-15 06:33:00,66.0,65.0,29.93,SSE,165,0.0,1.0,95,0.00,,,0.00,,2013-06-15 11:33:00,
2013-06-15 06:43:00,66.0,64.0,29.93,SSE,165,0.0,1.0,94,0.00,,,0.00,,2013-06-15 11:43:00,
2013-06-15 06:53:00,66.0,65.0,29.93,SSE,165,0.0,1.0,95,0.00,,,0.00,,2013-06-15 11:53:00,
2013-06-15 07:01:00,66.0,65.0,29.93,SSE,165,0.0,1.0,95,0.00,,,0.00,,2013-06-15 12:01:00,
2013-06-15 07:12:00,66.0,64.0,29.94,SSE,165,0.0,3.0,94,0.00,,,0.00,,2013-06-15 12:12:00,
2013-06-15 07:22:00,66.0,64.0,29.94,SSE,165,0.0,3.0,94,0.00,,,0.00,,2013-06-15 12:22:00,
2013-06-15 07:33:00,66.0,64.0,29.94,SSE,165,0.0,1.0,94,0.00,,,0.00,,2013-06-15 12:33:00,
2013-06-15 07:43:00,67.0,65.0,29.94,SSE,165,0.0,1.0,93,0.00,,,0.00,,2013-06-15 12:43:00,
2013-06-15 07:52:00,67.0,65.0,29.95,SSE,165,0.0,0.0,94,0.00,,,0.00,,2013-06-15 12:52:00,
2013-06-15 08:02:00,68.0,66.0,29.95,SSE,165,0.0,1.0,92,0.00,,,0.00,,2013-06-15 13:02:00,
2013-06-15 08:11:00,68.0,65.0,29.95,SSE,165,0.0,1.0,91,0.00,,,0.00,,2013-06-15 13:11:00,
2013-06-15 08:22:00,69.0,66.0,29.95,SSE,165,0.0,2.0,91,0.00,,,0.00,,2013-06-15 13:22:00,
2013-06-15 08:32:00,71.0,68.0,29.96,WSW,248,0.0,5.0,90,0.00,,,0.00,,2013-06-15 13:32:00,
2013-06-15 08:43:00,72.0,67.0,29.95,South,188,0.0,2.0,85,0.00,,,0.00,,2013-06-15 13:43:00,
2013-06-15 08:53:00,73.0,67.0,29.95,SSE,148,1.0,4.0,82,0.00,,,0.00,,2013-06-15 13:53:00,
2013-06-15 09:01:00,74.0,67.0,29.96,SSW,196,1.0,5.0,80,0.00,,,0.00,,2013-06-15 14:01:00,
2013-06-15 09:12:00,75.0,67.0,29.96,South,182,2.0,7.0,76,0.00,,,0.00,,2013-06-15 14:12:00,
2013-06-15 09:22:00,75.0,65.0,29.96,SSW,208,3.0,8.0,72,0.02,,,0.02,,2013-06-15 14:22:00,
2013-06-15 09:34:00,75.0,66.0,29.96,SW,221,1.0,8.0,74,0.02,,,0.02,,2013-06-15 14:34:00,
2013-06-15 09:43:00,75.0,66.0,29.96,SE,125,3.0,8.0,73,0.02,,,0.02,,2013-06-15 14:43:00,
2013-06-15 09:53:00,75.0,66.0,29.96,South,169,2.0,8.0,74,0.02,,,0.02,,2013-06-15 14:53:00,
2013-06-15 10:02:00,75.0,66.0,29.96,SW,215,3.0,7.0,74,0.02,,,0.02,,2013-06-15 15:02:00,
2013-06-15 10:11:00,75.0,67.0,29.96,SE,146,2.0,8.0,75,0.02,,,0.02,,2013-06-15 15:11:00,
2013-06-15 10:22:00,75.0,67.0,29.96,South,172,1.0,6.0,77,0.00,,,0.02,,2013-06-15 15:22:00,
2013-06-15 10:33:00,75.0,67.0,29.96,SE,133,1.0,4.0,77,0.00,,,0.02,,2013-06-15 15:33:00,
2013-06-15 10:43:00,76.0,67.0,29.95,South,173,2.0,6.0,75,0.00,,,0.02,,2013-06-15 15:43:00,
2013-06-15 10:53:00,76.0,68.0,29.94,SSE,156,0.0,3.0,77,0.00,,,0.02,,2013-06-15 15:53:00,
2013-06-15 11:01:00,76.0,67.0,29.93,South,182,0.0,3.0,74,0.00,,,0.02,,2013-06-15 16:01:00,
2013-06-15 11:11:00,76.0,67.0,29.96,South,181,1.0,5.0,75,0.00,,,0.02,,2013-06-15 16:11:00,
2013-06-15 11:22:00,75.0,67.0,29.96,ESE,121,0.0,5.0,77,0.00,,,0.02,,2013-06-15 16:22:00,
2013-06-15 11:33:00,74.0,67.0,29.99,SSW,194,2.0,8.0,78,0.00,,,0.02,,2013-06-15 16:33:00,
2013-06-15 11:43:00,73.0,67.0,30.02,WSW,243,2.0,10.0,82,0.00,,,0.02,,2013-06-15 16:43:00,
2013-06-15 11:53:00,72.0,66.0,30.03,South,179,2.0,12.0,82,0.00,,,0.02,,2013-06-15 16:53:00,
2013-06-15 12:02:00,72.0,67.0,30.02,WSW,242,2.0,7.0,83,0.00,,,0.02,,2013-06-15 17:02:00,
2013-06-15 12:12:00,72.0,67.0,30.01,SE,144,2.0,9.0,84,0.00,,,0.02,,2013-06-15 17:12:00,
2013-06-15 12:21:00,71.0,66.0,30.01,South,190,1.0,5.0,85,0.00,,,0.02,,2013-06-15 17:21:00,
2013-06-15 12:32:00,71.0,67.0,30.02,South,179,2.0,6.0,87,0.00,,,0.02,,2013-06-15 17:32:00,
2013-06-15 12:43:00,70.0,67.0,30.02,WSW,247,2.0,8.0,89,0.01,,,0.03,,2013-06-15 17:43:00,
2013-06-15 12:52:00,69.0,66.0,30.02,SSW,207,3.0,10.0,91,0.04,,,0.06,,2013-06-15 17:52:00,
2013-06-15 13:01:00,69.0,67.0,29.99,East,80,2.0,7.0,93,0.07,,,0.09,,2013-06-15 18:01:00,
2013-06-15 13:12:00,68.0,66.0,29.91,NE,48,7.0,12.0,94,0.10,,,0.12,,2013-06-15 18:12:00,
2013-06-15 13:22:00,68.0,67.0,29.87,NE,55,6.0,13.0,95,0.10,,,0.12,,2013-06-15 18:22:00,
2013-06-15 13:32:00,68.0,67.0,29.89,ENE,78,3.0,8.0,95,0.10,,,0.12,,2013-06-15 18:32:00,
2013-06-15 13:43:00,69.0,68.0,29.90,ENE,69,0.0,9.0,95,0.09,,,0.12,,2013-06-15 18:43:00,
2013-06-15 13:53:00,70.0,68.0,29.93,ENE,69,0.0,1.0,95,0.06,,,0.12,,2013-06-15 18:53:00,
2013-06-15 14:01:00,70.0,68.0,29.94,West,273,3.0,8.0,95,0.03,,,0.12,,2013-06-15 19:01:00,
2013-06-15 14:11:00,70.0,68.0,29.95,West,277,4.0,7.0,95,0.00,,,0.12,,2013-06-15 19:11:00,
2013-06-15 14:22:00,70.0,68.0,29.96,West,277,4.0,10.0,94,0.00,,,0.12,,2013-06-15 19:22:00,
2013-06-15 14:33:00,70.0,68.0,29.97,West,272,5.0,10.0,93,0.00,,,0.12,,2013-06-15 19:33:00,
2013-06-15 14:43:00,69.0,65.0,29.97,WNW,283,5.0,15.0,86,0.00,,,0.12,,2013-06-15 19:43:00,
2013-06-15 14:52:00,69.0,65.0,29.96,West,276,2.0,7.0,87,0.00,,,0.12,,2013-06-15 19:52:00,
2013-06-15 15:02:00,69.0,65.0,29.95,WSW,241,1.0,8.0,87,0.00,,,0.12,,2013-06-15 20:02:00,
2013-06-15 15:11:00,70.0,65.0,29.94,North,360,2.0,10.0,83,0.00,,,0.12,,2013-06-15 20:11:00,
2013-06-15 15:22:00,72.0,67.0,29.94,WSW,238,1.0,11.0,84,0.00,,,0.12,,2013-06-15 20:22:00,
2013-06-15 15:33:00,73.0,66.0,29.93,WNW,296,3.0,11.0,78,0.00,,,0.12,,2013-06-15 20:33:00,
2013-06-15 15:43:00,74.0,66.0,29.93,North,360,5.0,9.0,77,0.00,,,0.12,,2013-06-15 20:43:00,
2013-06-15 15:52:00,75.0,68.0,29.93,North,355,1.0,9.0,79,0.00,,,0.12,,2013-06-15 20:52:00,
2013-06-15 16:01:00,75.0,67.0,29.92,NNW,343,2.0,9.0,77,0.00,,,0.12,,2013-06-15 21:01:00,
2013-06-15 16:12:00,76.0,68.0,29.92,WNW,300,2.0,6.0,77,0.00,,,0.12,,2013-06-15 21:12:00,
2013-06-15 16:22:00,77.0,68.0,29.92,North,355,1.0,6.0,75,0.00,,,0.12,,2013-06-15 21:22:00,
2013-06-15 16:33:00,78.0,69.0,29.92,NW,326,2.0,8.0,75,0.00,,,0.12,,2013-06-15 21:33:00,
2013-06-15 16:42:00,78.0,68.0,29.92,North,355,3.0,9.0,71,0.00,,,0.12,,2013-06-15 21:42:00,
2013-06-15 16:52:00,78.0,67.0,29.91,WNW,294,1.0,6.0,70,0.00,,,0.12,,2013-06-15 21:52:00,
2013-06-15 17:01:00,80.0,70.0,29.91,West,281,0.0,4.0,71,0.00,,,0.12,,2013-06-15 22:01:00,
2013-06-15 17:11:00,80.0,66.0,29.91,WNW,283,0.0,2.0,63,0.00,,,0.12,,2013-06-15 22:11:00,
2013-06-15 17:22:00,81.0,67.0,29.91,WNW,283,1.0,2.0,62,0.00,,,0.12,,2013-06-15 22:22:00,
2013-06-15 17:32:00,82.0,65.0,29.92,WNW,283,0.0,2.0,56,0.00,,,0.12,,2013-06-15 22:32:00,
2013-06-15 17:42:00,82.0,67.0,29.91,West,273,1.0,2.0,60,0.00,,,0.12,,2013-06-15 22:42:00,
2013-06-15 17:53:00,82.0,65.0,29.91,West,273,0.0,2.0,56,0.00,,,0.12,,2013-06-15 22:53:00,
2013-06-15 18:02:00,82.0,64.0,29.91,West,271,1.0,2.0,55,0.00,,,0.12,,2013-06-15 23:02:00,
2013-06-15 18:12:00,83.0,65.0,29.91,West,271,1.0,2.0,54,0.00,,,0.12,,2013-06-15 23:12:00,
2013-06-15 18:22:00,82.0,62.0,29.91,West,273,2.0,4.0,51,0.00,,,0.12,,2013-06-15 23:22:00,
2013-06-15 18:33:00,81.0,68.0,29.92,NW,308,2.0,9.0,64,0.00,,,0.12,,2013-06-15 23:33:00,
2013-06-15 18:42:00,80.0,67.0,29.92,WNW,282,4.0,10.0,64,0.00,,,0.12,,2013-06-15 23:42:00,
2013-06-15 18:53:00,80.0,67.0,29.93,West,271,1.0,6.0,65,0.00,,,0.12,,2013-06-15 23:53:00,
2013-06-15 19:01:00,79.0,66.0,29.93,West,279,1.0,9.0,64,0.00,,,0.12,,2013-06-16 00:01:00,
2013-06-15 19:11:00,79.0,65.0,29.93,NW,318,1.0,6.0,62,0.00,,,0.12,,2013-06-16 00:11:00,
2013-06-15 19:22:00,79.0,65.0,29.93,West,272,2.0,6.0,62,0.00,,,0.12,,2013-06-16 00:22:00,
2013-06-15 19:34:00,79.0,66.0,29.93,WNW,297,1.0,5.0,65,0.00,,,0.12,,2013-06-16 00:34:00,
2013-06-15 19:43:00,78.0,64.0,29.92,NW,319,0.0,4.0,62,0.00,,,0.12,,2013-06-16 00:43:00,
2013-06-15 19:52:00,78.0,64.0,29.93,West,281,1.0,2.0,63,0.00,,,0.12,,2013-06-16 00:52:00,
2013-06-15 20:01:00,78.0,65.0,29.93,West,281,0.0,2.0,64,0.00,,,0.12,,2013-06-16 01:01:00,
2013-06-15 20:11:00,77.0,64.0,29.93,West,281,0.0,1.0,64,0.00,,,0.12,,2013-06-16 01:11:00,
2013-06-15 20:22:00,77.0,64.0,29.93,West,281,0.0,0.0,64,0.00,,,0.12,,2013-06-16 01:22:00,
2013-06-15 20:33:00,77.0,65.0,29.94,West,281,0.0,0.0,66,0.00,,,0.12,,2013-06-16 01:33:00,
2013-06-15 20:42:00,76.0,65.0,29.94,West,281,0.0,0.0,70,0.00,,,0.12,,2013-06-16 01:42:00,
2013-06-15 20:53:00,75.0,65.0,29.94,West,281,0.0,0.0,72,0.00,,,0.12,,2013-06-16 01:53:00,
2013-06-15 21:01:00,74.0,65.0,29.94,West,281,0.0,0.0,74,0.00,,,0.12,,2013-06-16 02:01:00,
2013-06-15 21:12:00,73.0,65.0,29.94,ENE,67,0.0,0.0,75,0.00,,,0.12,,2013-06-16 02:12:00,
2013-06-15 21:22:00,72.0,64.0,29.95,ENE,67,0.0,0.0,76,0.00,,,0.12,,2013-06-16 02:22:00,
2013-06-15 21:33:00,71.0,63.0,29.95,ENE,67,0.0,0.0,77,0.00,,,0.12,,2013-06-16 02:33:00,
2013-06-15 21:43:00,70.0,63.0,29.95,ENE,67,0.0,0.0,79,0.00,,,0.12,,2013-06-16 02:43:00,
2013-06-15 21:53:00,70.0,64.0,29.95,ENE,67,0.0,0.0,82,0.00,,,0.12,,2013-06-16 02:53:00,
2013-06-15 22:02:00,69.0,64.0,29.96,ENE,67,0.0,0.0,83,0.00,,,0.12,,2013-06-16 03:02:00,
2013-06-15 22:12:00,69.0,64.0,29.96,ENE,67,0.0,0.0,84,0.00,,,0.12,,2013-06-16 03:12:00,
2013-06-15 22:22:00,68.0,63.0,29.97,ENE,67,0.0,0.0,85,0.00,,,0.12,,2013-06-16 03:22:00,
2013-06-15 22:33:00,67.0,63.0,29.97,ENE,67,0.0,0.0,87,0.00,,,0.12,,2013-06-16 03:33:00,
2013-06-15 22:43:00,67.0,63.0,29.97,ENE,67,0.0,0.0,88,0.00,,,0.12,,2013-06-16 03:43:00,
2013-06-15 22:53:00,66.0,63.0,29.97,ENE,67,0.0,0.0,90,0.00,,,0.12,,2013-06-16 03:53:00,
2013-06-15 23:02:00,66.0,63.0,29.97,ENE,67,0.0,0.0,91,0.00,,,0.12,,2013-06-16 04:02:00,
2013-06-15 23:12:00,66.0,64.0,29.97,ENE,67,0.0,0.0,92,0.00,,,0.12,,2013-06-16 04:12:00,
2013-06-15 23:23:00,65.0,63.0,29.97,ENE,67,0.0,0.0,93,0.00,,,0.12,,2013-06-16 04:23:00,
2013-06-15 23:33:00,65.0,63.0,29.97,ENE,67,0.0,0.0,93,0.00,,,0.12,,2013-06-16 04:33:00,
2013-06-15 23:42:00,65.0,63.0,29.97,ENE,67,0.0,0.0,94,0.00,,,0.12,,2013-06-16 04:42:00,
2013-06-15 23:53:00,64.0,62.0,29.97,ENE,67,0.0,0.0,94,0.00,,,0.12,,2013-06-16 04:53:00,